Time;durP1;ratioP1;P1;durP2;ratioP2;P2;SDS_P1;SDS_P2;PMS_P1;PMS_P2;Temp;Humidity;BMP_temperature;BMP_pressure;BME280_temperature;BME280_humidity;BME280_pressure;Samples;Min_cycle;Max_cycle;Signal;HPM_P1;HPM_P2
2023/01/25 00:01:52;;;;;;;12.37;6.10;;;0.80;99.90;;;;;;4419357;28;657400;-62
2023/01/25 00:04:39;;;;;;;11.97;5.77;;;0.80;99.90;;;;;;4446449;28;656033;-62
2023/01/25 00:07:26;;;;;;;11.23;6.10;;;0.80;99.90;;;;;;4425008;28;656639;-63
2023/01/25 00:10:15;;;;;;;9.50;5.67;;;0.80;99.90;;;;;;4445858;28;657432;-64
2023/01/25 00:13:03;;;;;;;11.27;6.37;;;0.80;99.90;;;;;;4419174;28;657177;-62
2023/01/25 00:15:50;;;;;;;13.98;7.05;;;0.80;99.90;;;;;;4427640;28;657149;-64
2023/01/25 00:18:37;;;;;;;8.20;4.90;;;0.90;99.90;;;;;;4448365;28;657381;-62
2023/01/25 00:21:26;;;;;;;8.90;4.83;;;0.90;99.90;;;;;;4442775;28;655921;-64
2023/01/25 00:24:13;;;;;;;8.43;4.60;;;0.80;99.90;;;;;;4452633;28;656084;-62
2023/01/25 00:27:02;;;;;;;7.05;4.00;;;0.80;99.90;;;;;;4422955;28;656108;-64
2023/01/25 00:29:49;;;;;;;6.23;3.87;;;0.80;99.90;;;;;;4444970;28;656035;-62
2023/01/25 00:32:48;;;;;;;9.17;4.57;;;0.80;99.90;;;;;;4421045;28;655907;-62
2023/01/25 00:35:35;;;;;;;9.97;4.90;;;0.80;99.90;;;;;;4403260;28;655286;-64
2023/01/25 00:38:27;;;;;;;7.47;4.13;;;0.80;99.90;;;;;;4452006;28;655968;-63
2023/01/25 00:41:14;;;;;;;8.97;4.60;;;0.80;99.90;;;;;;4423652;28;655818;-62
2023/01/25 00:44:03;;;;;;;9.50;4.10;;;0.80;99.90;;;;;;4425199;28;655600;-62
2023/01/25 00:46:50;;;;;;;9.53;4.97;;;0.80;99.90;;;;;;4406334;28;655769;-64
2023/01/25 00:49:38;;;;;;;8.57;4.30;;;0.70;99.90;;;;;;4446606;28;656122;-62
2023/01/25 00:52:27;;;;;;;9.23;5.03;;;0.80;99.90;;;;;;4429954;28;655424;-64
2023/01/25 00:55:14;;;;;;;9.93;5.17;;;0.80;99.90;;;;;;4440639;28;655760;-62
2023/01/25 00:58:01;;;;;;;9.67;4.37;;;0.80;99.90;;;;;;4415315;28;655854;-62
2023/01/25 01:00:51;;;;;;;11.00;4.77;;;0.80;99.90;;;;;;4439369;28;656259;-62
2023/01/25 01:03:39;;;;;;;9.47;5.80;;;0.80;99.90;;;;;;4425683;28;657106;-63
2023/01/25 01:06:26;;;;;;;8.50;4.50;;;0.80;99.90;;;;;;4425345;28;655518;-62
2023/01/25 01:09:14;;;;;;;7.57;4.03;;;0.80;99.90;;;;;;4447991;28;655349;-62
2023/01/25 01:12:01;;;;;;;9.40;4.43;;;0.90;99.90;;;;;;4423890;28;656046;-63
2023/01/25 01:14:49;;;;;;;6.80;3.70;;;0.90;99.90;;;;;;4440860;28;656351;-62
2023/01/25 01:17:37;;;;;;;8.40;3.93;;;0.80;99.90;;;;;;4428071;28;655527;-63
2023/01/25 01:20:25;;;;;;;8.23;4.60;;;0.80;99.90;;;;;;4442364;28;656198;-62
2023/01/25 01:23:12;;;;;;;10.93;5.93;;;0.90;99.90;;;;;;4442659;28;656523;-64
2023/01/25 01:26:00;;;;;;;11.50;5.53;;;0.80;99.90;;;;;;4441263;28;656547;-63
2023/01/25 01:28:48;;;;;;;12.50;6.33;;;0.80;99.90;;;;;;4446736;28;656245;-62
2023/01/25 01:31:35;;;;;;;19.27;8.83;;;0.80;99.90;;;;;;4433163;28;656354;-64
2023/01/25 01:34:24;;;;;;;14.27;5.97;;;0.80;99.90;;;;;;4444801;28;657186;-63
2023/01/25 01:37:11;;;;;;;9.13;4.60;;;0.80;99.90;;;;;;4427073;28;656384;-63
2023/01/25 01:39:58;;;;;;;8.32;5.05;;;0.80;99.90;;;;;;4437984;28;656303;-62
2023/01/25 01:42:59;;;;;;;10.63;4.77;;;0.80;99.90;;;;;;4433068;28;656582;-64
2023/01/25 01:45:54;;;;;;;11.63;5.40;;;0.80;99.90;;;;;;4418947;28;657247;-62
2023/01/25 01:48:43;;;;;;;10.40;5.60;;;0.80;99.90;;;;;;4417060;28;656622;-62
2023/01/25 01:51:39;;;;;;;9.77;4.70;;;0.80;99.90;;;;;;4436080;28;657068;-64
2023/01/25 01:54:28;;;;;;;11.50;7.03;;;0.80;99.90;;;;;;4398832;28;656162;-62
2023/01/25 01:57:16;;;;;;;11.53;6.90;;;0.80;99.90;;;;;;4427998;28;656295;-64
2023/01/25 02:00:05;;;;;;;12.47;6.93;;;0.80;99.90;;;;;;4444152;28;657468;-62
2023/01/25 02:02:52;;;;;;;11.97;5.97;;;0.90;99.90;;;;;;4419435;28;657999;-62
2023/01/25 02:05:44;;;;;;;10.77;5.43;;;0.90;99.90;;;;;;4440576;28;656531;-64
2023/01/25 02:08:33;;;;;;;11.10;5.90;;;0.90;99.90;;;;;;4422569;28;656609;-63
2023/01/25 02:11:20;;;;;;;10.53;5.07;;;0.90;99.90;;;;;;4426238;28;656431;-63
2023/01/25 02:14:08;;;;;;;11.57;7.03;;;0.90;99.90;;;;;;4451334;28;657775;-62
2023/01/25 02:16:55;;;;;;;12.87;6.53;;;0.90;99.90;;;;;;4435587;28;656401;-63
2023/01/25 02:19:45;;;;;;;11.67;6.20;;;0.90;99.90;;;;;;4447824;28;657743;-62
2023/01/25 02:22:36;;;;;;;12.23;5.83;;;0.90;99.90;;;;;;4422498;28;659881;-62
2023/01/25 02:25:24;;;;;;;10.87;5.73;;;0.90;99.90;;;;;;4420278;28;657287;-63
2023/01/25 02:28:14;;;;;;;12.33;6.73;;;0.90;99.90;;;;;;4422212;28;657400;-62
2023/01/25 02:31:01;;;;;;;12.57;6.30;;;0.90;99.90;;;;;;4423974;28;656429;-62
2023/01/25 02:33:48;;;;;;;9.57;5.47;;;0.90;99.90;;;;;;4439046;28;656879;-62
2023/01/25 02:36:35;;;;;;;9.90;6.17;;;0.90;99.90;;;;;;4408115;28;655740;-64
2023/01/25 02:39:25;;;;;;;15.47;7.00;;;0.90;99.90;;;;;;4391781;28;655625;-64
2023/01/25 02:42:14;;;;;;;13.35;7.07;;;0.90;99.90;;;;;;4384037;28;656337;-63
2023/01/25 02:45:01;;;;;;;10.90;6.00;;;0.90;99.90;;;;;;4414102;28;656868;-62
2023/01/25 02:47:48;;;;;;;10.63;6.23;;;0.90;99.90;;;;;;4444454;28;657359;-62
2023/01/25 02:50:35;;;;;;;13.90;7.37;;;0.80;99.90;;;;;;4425550;28;657043;-63
2023/01/25 02:53:22;;;;;;;12.33;6.00;;;0.80;99.90;;;;;;4447350;28;657100;-62
2023/01/25 02:56:10;;;;;;;13.53;7.20;;;0.90;99.90;;;;;;4440506;28;656518;-64
2023/01/25 02:59:04;;;;;;;12.50;7.63;;;0.90;99.90;;;;;;4444379;28;656820;-62
2023/01/25 03:01:51;;;;;;;14.30;6.90;;;0.90;99.90;;;;;;4420461;28;656719;-62
2023/01/25 03:04:38;;;;;;;14.17;7.20;;;0.90;99.90;;;;;;4449674;28;659113;-62
2023/01/25 03:07:25;;;;;;;17.63;8.23;;;0.90;99.90;;;;;;4424386;28;656773;-63
2023/01/25 03:10:13;;;;;;;16.13;9.20;;;0.90;99.90;;;;;;4446340;28;658128;-62
2023/01/25 03:13:00;;;;;;;14.23;7.50;;;0.90;99.90;;;;;;4435313;28;656532;-64
2023/01/25 03:15:49;;;;;;;14.23;7.60;;;0.90;99.90;;;;;;4450381;28;656917;-64
2023/01/25 03:18:36;;;;;;;13.57;7.20;;;0.90;99.90;;;;;;4424607;28;656558;-62
2023/01/25 03:21:23;;;;;;;13.65;8.07;;;0.90;99.90;;;;;;4440016;28;657515;-62
2023/01/25 03:24:11;;;;;;;16.33;7.93;;;0.90;99.90;;;;;;4419850;28;656384;-62
2023/01/25 03:27:15;;;;;;;13.43;7.93;;;0.90;99.90;;;;;;4445838;28;656598;-63
2023/01/25 03:30:03;;;;;;;13.43;7.80;;;0.90;99.90;;;;;;4418507;28;656752;-62
2023/01/25 03:32:52;;;;;;;14.50;8.03;;;0.90;99.90;;;;;;4421974;28;656619;-64
2023/01/25 03:35:39;;;;;;;10.97;6.53;;;0.90;99.90;;;;;;4442881;28;656109;-63
2023/01/25 03:38:26;;;;;;;11.63;5.47;;;1.00;99.90;;;;;;4424549;28;657091;-62
2023/01/25 03:41:14;;;;;;;9.60;5.27;;;0.90;99.90;;;;;;4445052;28;657463;-63
2023/01/25 03:44:01;;;;;;;11.90;6.57;;;0.90;99.90;;;;;;4429479;28;655555;-62
2023/01/25 03:46:48;;;;;;;11.17;6.07;;;1.00;99.90;;;;;;4447364;28;656722;-62
2023/01/25 03:49:37;;;;;;;14.38;6.72;;;0.90;99.90;;;;;;4427546;28;656649;-64
2023/01/25 03:52:25;;;;;;;9.40;5.63;;;1.00;99.90;;;;;;4447097;28;656417;-63
2023/01/25 03:55:13;;;;;;;9.43;5.77;;;1.00;99.90;;;;;;4426723;28;655957;-63
2023/01/25 03:58:00;;;;;;;9.83;5.07;;;1.00;99.90;;;;;;4439046;28;655620;-64
2023/01/25 04:00:47;;;;;;;12.90;6.13;;;1.00;99.90;;;;;;4453867;28;656212;-63
2023/01/25 04:03:35;;;;;;;9.40;5.30;;;1.00;99.90;;;;;;4444907;28;656752;-64
2023/01/25 04:06:24;;;;;;;10.30;5.50;;;1.00;99.90;;;;;;4447220;28;657311;-62
2023/01/25 04:09:13;;;;;;;11.47;5.17;;;1.00;99.90;;;;;;4429673;28;657137;-64
2023/01/25 04:12:00;;;;;;;11.07;5.70;;;1.00;99.90;;;;;;4427715;28;656327;-64
2023/01/25 04:14:47;;;;;;;10.53;6.00;;;1.00;99.90;;;;;;4451720;28;656811;-63
2023/01/25 04:17:35;;;;;;;12.70;6.83;;;1.00;99.90;;;;;;4439914;28;656454;-64
2023/01/25 04:20:22;;;;;;;13.33;6.47;;;1.00;99.90;;;;;;4447871;28;657258;-62
2023/01/25 04:23:12;;;;;;;14.97;6.80;;;1.00;99.90;;;;;;4441873;28;656143;-64
2023/01/25 04:26:00;;;;;;;15.40;7.37;;;0.90;99.90;;;;;;4442066;28;656642;-62
2023/01/25 04:28:47;;;;;;;14.70;7.83;;;0.90;99.90;;;;;;4426467;28;658137;-62
2023/01/25 04:31:34;;;;;;;14.75;7.80;;;0.90;99.90;;;;;;4442763;28;658778;-62
2023/01/25 04:34:22;;;;;;;16.40;8.70;;;0.90;99.90;;;;;;4420420;28;657919;-63
2023/01/25 04:37:10;;;;;;;22.43;9.97;;;0.80;99.90;;;;;;4441797;28;656520;-64
2023/01/25 04:39:59;;;;;;;18.57;10.07;;;0.90;99.90;;;;;;4440437;28;657555;-62
2023/01/25 04:42:46;;;;;;;17.67;9.50;;;0.90;99.90;;;;;;4426026;28;657783;-62
2023/01/25 04:45:35;;;;;;;12.88;6.43;;;0.90;99.90;;;;;;4445874;28;657471;-62
2023/01/25 04:48:22;;;;;;;13.27;7.10;;;0.90;99.90;;;;;;4418478;28;658394;-62
2023/01/25 04:51:09;;;;;;;12.43;6.90;;;0.80;99.90;;;;;;4443309;28;656246;-63
2023/01/25 04:53:56;;;;;;;13.70;6.40;;;0.80;99.90;;;;;;4425206;28;657270;-62
2023/01/25 04:56:45;;;;;;;11.13;5.90;;;0.90;99.90;;;;;;4443509;28;657312;-62
2023/01/25 04:59:32;;;;;;;13.07;7.00;;;0.90;99.90;;;;;;4426023;28;657592;-62
2023/01/25 05:02:19;;;;;;;12.40;7.13;;;0.90;99.90;;;;;;4441405;28;656912;-62
2023/01/25 05:05:07;;;;;;;14.63;7.63;;;0.80;99.90;;;;;;4426246;28;656514;-62
2023/01/25 05:07:54;;;;;;;20.90;9.27;;;0.90;99.90;;;;;;4441361;28;656549;-62
2023/01/25 05:10:42;;;;;;;13.77;8.63;;;0.90;99.90;;;;;;4430460;28;657014;-62
2023/01/25 05:13:30;;;;;;;12.23;7.13;;;0.90;99.90;;;;;;4439973;28;656925;-62
2023/01/25 05:16:17;;;;;;;15.50;7.47;;;0.90;99.90;;;;;;4421545;28;656711;-62
2023/01/25 05:19:05;;;;;;;14.57;8.27;;;0.90;99.90;;;;;;4441156;28;656633;-64
2023/01/25 05:21:58;;;;;;;14.47;8.20;;;0.90;99.90;;;;;;4442601;28;657362;-62
2023/01/25 05:24:45;;;;;;;16.35;7.78;;;0.80;99.90;;;;;;4410878;28;656443;-63
2023/01/25 05:27:31;;;;;;;15.90;7.63;;;0.80;99.90;;;;;;4447373;28;657256;-62
2023/01/25 05:30:20;;;;;;;14.47;7.57;;;0.80;99.90;;;;;;4443768;28;656400;-62
2023/01/25 05:33:07;;;;;;;14.80;7.47;;;0.80;99.90;;;;;;4419940;28;656885;-62
2023/01/25 05:35:57;;;;;;;18.93;7.77;;;0.90;99.90;;;;;;4444001;28;656309;-63
2023/01/25 05:38:44;;;;;;;12.53;7.70;;;0.90;99.90;;;;;;4447467;28;656917;-62
2023/01/25 05:41:32;;;;;;;11.60;5.67;;;0.90;99.90;;;;;;4422476;28;656614;-62
2023/01/25 05:44:19;;;;;;;13.40;6.57;;;0.90;99.90;;;;;;4439542;28;656239;-62
2023/01/25 05:47:08;;;;;;;13.70;7.00;;;0.90;99.90;;;;;;4425413;28;656608;-63
2023/01/25 05:49:56;;;;;;;15.67;8.00;;;0.90;99.90;;;;;;4425579;28;656435;-62
2023/01/25 05:52:43;;;;;;;18.50;8.40;;;0.90;99.90;;;;;;4446704;28;656816;-62
2023/01/25 05:55:30;;;;;;;21.43;9.73;;;0.90;99.90;;;;;;4418151;28;656835;-64
2023/01/25 05:58:17;;;;;;;14.37;6.37;;;1.00;99.90;;;;;;4444653;28;656456;-63
2023/01/25 06:01:06;;;;;;;13.37;7.57;;;1.00;99.90;;;;;;4442040;28;656265;-64
2023/01/25 06:03:55;;;;;;;20.83;10.67;;;0.90;99.90;;;;;;4440215;28;657464;-63
2023/01/25 06:06:42;;;;;;;21.47;10.37;;;1.00;99.90;;;;;;4417885;28;658982;-62
2023/01/25 06:09:29;;;;;;;21.17;10.70;;;1.00;99.90;;;;;;4444547;28;657720;-63
2023/01/25 06:12:19;;;;;;;17.90;9.80;;;0.90;99.90;;;;;;4422954;28;658910;-63
2023/01/25 06:15:08;;;;;;;20.03;10.70;;;1.00;99.90;;;;;;4419747;28;657050;-62
2023/01/25 06:17:56;;;;;;;20.83;10.27;;;0.90;99.90;;;;;;4433523;28;657840;-64
2023/01/25 06:20:45;;;;;;;19.95;10.43;;;0.90;99.90;;;;;;4440633;28;658286;-63
2023/01/25 06:23:32;;;;;;;24.93;11.73;;;0.90;99.90;;;;;;4417151;28;657792;-62
2023/01/25 06:26:19;;;;;;;24.10;11.60;;;0.90;99.90;;;;;;4442003;28;658110;-63
2023/01/25 06:29:06;;;;;;;22.23;11.67;;;0.90;99.90;;;;;;4413693;28;657733;-62
2023/01/25 06:31:54;;;;;;;29.00;12.23;;;0.90;99.90;;;;;;4442855;28;659654;-62
2023/01/25 06:34:41;;;;;;;23.57;11.73;;;0.80;99.90;;;;;;4420644;28;657633;-61
2023/01/25 06:37:30;;;;;;;24.10;12.27;;;0.80;99.90;;;;;;4442280;28;658564;-62
2023/01/25 06:40:17;;;;;;;23.13;11.10;;;0.80;99.90;;;;;;4422703;28;658663;-62
2023/01/25 06:43:06;;;;;;;22.93;11.07;;;0.80;99.90;;;;;;4440714;28;657031;-62
2023/01/25 06:45:57;;;;;;;18.57;9.43;;;0.80;99.90;;;;;;4417148;28;658523;-62
2023/01/25 06:48:44;;;;;;;19.93;9.53;;;0.80;99.90;;;;;;4423605;28;656233;-63
2023/01/25 06:51:31;;;;;;;24.87;10.20;;;0.80;99.90;;;;;;4422351;28;656823;-62
2023/01/25 06:54:20;;;;;;;29.63;11.13;;;0.80;99.90;;;;;;4441874;28;659095;-61
2023/01/25 06:57:09;;;;;;;21.13;9.20;;;0.80;99.90;;;;;;4416420;28;658204;-62
2023/01/25 06:59:56;;;;;;;22.50;10.23;;;0.70;99.90;;;;;;4424920;28;656912;-63
2023/01/25 07:02:43;;;;;;;25.93;10.57;;;0.80;99.90;;;;;;4433656;28;658061;-62
2023/01/25 07:05:30;;;;;;;20.77;10.30;;;0.70;99.90;;;;;;4419193;28;657390;-63
2023/01/25 07:08:20;;;;;;;19.43;9.73;;;0.70;99.90;;;;;;4434519;28;659129;-62
2023/01/25 07:11:12;;;;;;;18.87;9.50;;;0.80;99.90;;;;;;4422082;28;657884;-62
2023/01/25 07:14:00;;;;;;;25.90;11.13;;;0.90;99.90;;;;;;4420111;28;656284;-71
2023/01/25 07:16:47;;;;;;;25.47;11.20;;;0.90;99.90;;;;;;4420027;28;658819;-71
2023/01/25 07:19:34;;;;;;;38.65;14.40;;;0.90;99.90;;;;;;4442026;28;657718;-71
2023/01/25 07:22:21;;;;;;;40.87;16.17;;;0.80;99.90;;;;;;4420112;28;658187;-71
2023/01/25 07:25:09;;;;;;;43.70;15.77;;;0.90;99.90;;;;;;4419662;28;657871;-70
2023/01/25 07:27:58;;;;;;;41.00;15.90;;;0.90;99.90;;;;;;4384194;28;657568;-71
2023/01/25 07:30:45;;;;;;;40.17;15.83;;;0.80;99.90;;;;;;4361337;28;657806;-70
2023/01/25 07:33:33;;;;;;;42.47;16.90;;;0.80;99.90;;;;;;4368696;28;657423;-71
2023/01/25 07:36:20;;;;;;;41.93;15.67;;;0.90;99.90;;;;;;4334140;28;657391;-71
2023/01/25 07:39:09;;;;;;;50.70;16.67;;;0.90;99.90;;;;;;4333333;28;659331;-70
2023/01/25 07:41:56;;;;;;;44.83;16.03;;;0.90;99.90;;;;;;4358624;28;658168;-71
2023/01/25 07:44:45;;;;;;;36.57;14.93;;;0.90;99.90;;;;;;4445744;28;658140;-71
2023/01/25 07:47:32;;;;;;;36.20;14.90;;;0.90;99.90;;;;;;4410267;28;658302;-71
2023/01/25 07:50:19;;;;;;;64.67;15.80;;;0.90;99.90;;;;;;4355270;28;657677;-71
2023/01/25 07:53:06;;;;;;;37.63;15.70;;;0.90;99.90;;;;;;4408915;28;657467;-71
2023/01/25 07:55:54;;;;;;;43.93;18.43;;;0.90;99.90;;;;;;4430687;28;658624;-71
2023/01/25 07:58:41;;;;;;;51.00;18.83;;;0.90;99.90;;;;;;4413055;28;657242;-71
2023/01/25 08:01:31;;;;;;;45.23;17.83;;;0.80;99.90;;;;;;4433713;28;657534;-71
2023/01/25 08:04:18;;;;;;;39.23;17.93;;;0.90;99.90;;;;;;4408051;28;658370;-71
2023/01/25 08:07:05;;;;;;;30.63;13.43;;;0.90;99.90;;;;;;4420702;28;657332;-71
2023/01/25 08:09:53;;;;;;;25.83;11.73;;;0.90;99.90;;;;;;4434174;28;658034;-71
2023/01/25 08:12:40;;;;;;;29.00;12.27;;;0.90;99.90;;;;;;4430678;28;657881;-71
2023/01/25 08:15:27;;;;;;;26.87;12.13;;;0.90;99.90;;;;;;4438666;28;657730;-71
2023/01/25 08:18:17;;;;;;;24.00;11.37;;;0.90;99.90;;;;;;4430210;28;658794;-71
2023/01/25 08:21:04;;;;;;;27.90;12.53;;;0.90;99.90;;;;;;4436241;28;660274;-71
2023/01/25 08:23:52;;;;;;;25.43;11.40;;;0.90;99.90;;;;;;4417231;28;657320;-72
2023/01/25 08:26:39;;;;;;;31.07;13.53;;;0.90;99.90;;;;;;4437017;28;657235;-72
2023/01/25 08:29:31;;;;;;;27.43;12.90;;;1.00;99.90;;;;;;4418590;28;657844;-72
2023/01/25 08:32:18;;;;;;;27.63;12.90;;;1.00;99.90;;;;;;4411055;28;658884;-71
2023/01/25 08:35:08;;;;;;;33.77;15.67;;;1.00;99.90;;;;;;4415265;28;657333;-72
2023/01/25 08:37:55;;;;;;;32.55;13.95;;;1.00;99.90;;;;;;4414745;28;659087;-72
2023/01/25 08:40:43;;;;;;;29.27;13.10;;;1.00;99.90;;;;;;4438329;28;658309;-72
2023/01/25 08:43:31;;;;;;;27.03;13.17;;;1.00;99.90;;;;;;4415255;28;657177;-72
2023/01/25 08:46:18;;;;;;;28.73;11.73;;;1.10;99.90;;;;;;4419152;28;658138;-72
2023/01/25 08:49:06;;;;;;;30.40;12.20;;;1.10;99.90;;;;;;4417408;28;657821;-72
2023/01/25 08:51:55;;;;;;;24.17;10.88;;;1.30;99.90;;;;;;4439011;28;658513;-72
2023/01/25 08:54:43;;;;;;;21.77;10.17;;;1.30;99.90;;;;;;4405136;28;658228;-72
2023/01/25 08:57:31;;;;;;;24.40;10.93;;;1.50;99.90;;;;;;4422955;28;657865;-72
2023/01/25 09:00:19;;;;;;;27.30;11.63;;;1.70;99.90;;;;;;4433708;28;658249;-71
2023/01/25 09:03:07;;;;;;;23.53;11.23;;;1.80;99.90;;;;;;4420215;28;657827;-72
2023/01/25 09:05:54;;;;;;;32.53;14.50;;;1.90;99.90;;;;;;4440113;28;657303;-72
2023/01/25 09:08:43;;;;;;;26.57;13.00;;;1.90;99.90;;;;;;4420709;28;658398;-72
2023/01/25 09:11:30;;;;;;;25.03;11.90;;;1.90;99.90;;;;;;4423199;28;657831;-72
2023/01/25 09:14:17;;;;;;;20.43;10.10;;;1.90;99.90;;;;;;4435200;28;658351;-72
2023/01/25 09:17:05;;;;;;;24.20;11.33;;;1.90;99.90;;;;;;4435022;28;657507;-72
2023/01/25 09:19:52;;;;;;;21.77;11.13;;;1.90;99.90;;;;;;4440075;28;657478;-72
2023/01/25 09:22:40;;;;;;;24.47;11.83;;;1.90;99.90;;;;;;4434764;28;657033;-72
2023/01/25 09:25:29;;;;;;;28.23;12.37;;;2.00;99.90;;;;;;4444738;28;657486;-72
2023/01/25 09:28:16;;;;;;;20.67;9.93;;;2.10;99.90;;;;;;4408550;28;657484;-71
2023/01/25 09:31:04;;;;;;;24.10;11.77;;;2.10;99.90;;;;;;4445607;28;656772;-72
2023/01/25 09:33:53;;;;;;;27.90;11.57;;;2.20;99.90;;;;;;4411866;28;658208;-71
2023/01/25 09:36:40;;;;;;;22.23;10.10;;;2.30;99.90;;;;;;4426223;28;657813;-71
2023/01/25 09:39:27;;;;;;;19.03;9.80;;;2.40;99.90;;;;;;4435097;28;657873;-71
2023/01/25 09:42:23;;;;;;;19.20;10.00;;;2.50;99.90;;;;;;4434726;28;656232;-71
2023/01/25 09:45:17;;;;;;;22.03;10.23;;;2.60;99.90;;;;;;4388424;28;658040;-71
2023/01/25 09:48:18;;;;;;;19.90;10.50;;;2.60;99.90;;;;;;4408969;28;657526;-71
2023/01/25 09:51:15;;;;;;;24.83;10.67;;;2.80;99.90;;;;;;4398967;28;658322;-71
2023/01/25 09:54:03;;;;;;;19.98;9.85;;;2.90;99.90;;;;;;4386211;28;658511;-71
2023/01/25 09:56:50;;;;;;;21.80;9.90;;;2.80;99.90;;;;;;4426250;28;656397;-71
2023/01/25 09:59:39;;;;;;;21.63;10.07;;;2.90;99.90;;;;;;4433764;28;658832;-71
2023/01/25 10:02:35;;;;;;;18.90;9.57;;;2.90;99.90;;;;;;4409153;28;657222;-71
2023/01/25 10:05:25;;;;;;;16.07;8.37;;;3.00;99.90;;;;;;4391633;28;657221;-71
2023/01/25 10:08:18;;;;;;;12.83;7.27;;;3.00;99.90;;;;;;4412455;28;657094;-71
2023/01/25 10:11:08;;;;;;;12.90;7.00;;;2.90;99.90;;;;;;4393682;28;657658;-72
2023/01/25 10:13:55;;;;;;;26.47;12.63;;;2.90;99.90;;;;;;4408912;28;656921;-71
2023/01/25 10:17:06;;;;;;;27.40;12.07;;;2.90;99.90;;;;;;4431311;28;658535;-72
2023/01/25 10:20:03;;;;;;;31.67;14.73;;;3.00;99.90;;;;;;4411330;28;658023;-71
2023/01/25 10:22:51;;;;;;;14.00;7.57;;;3.10;99.90;;;;;;4398842;28;658018;-71
2023/01/25 10:25:38;;;;;;;13.57;6.70;;;3.20;99.90;;;;;;4432650;28;657641;-71
2023/01/25 10:28:36;;;;;;;11.07;6.17;;;3.10;99.90;;;;;;4413632;28;656659;-71
2023/01/25 10:31:28;;;;;;;11.40;5.87;;;3.10;99.90;;;;;;4405264;28;656683;-72
2023/01/25 10:34:19;;;;;;;14.33;6.80;;;3.10;99.90;;;;;;4393407;28;656421;-71
2023/01/25 10:37:11;;;;;;;12.80;6.60;;;3.20;99.90;;;;;;4416291;28;656355;-71
2023/01/25 10:40:01;;;;;;;14.50;6.83;;;3.10;99.90;;;;;;4412226;28;657468;-71
2023/01/25 10:42:51;;;;;;;14.53;7.80;;;3.20;99.90;;;;;;4410543;28;656990;-71
2023/01/25 10:45:38;;;;;;;17.73;8.10;;;3.30;99.90;;;;;;4420353;28;657202;-72
2023/01/25 10:48:27;;;;;;;11.63;6.37;;;3.40;99.90;;;;;;4413643;28;657006;-71
2023/01/25 10:51:32;;;;;;;13.10;6.43;;;3.40;99.90;;;;;;4438931;28;656807;-72
2023/01/25 10:54:19;;;;;;;16.73;7.88;;;3.40;99.90;;;;;;4414771;28;656910;-72
2023/01/25 10:57:07;;;;;;;38.57;15.20;;;3.50;99.90;;;;;;4419269;28;656422;-72
2023/01/25 10:59:54;;;;;;;45.13;19.87;;;3.50;99.90;;;;;;4428152;28;657438;-71
2023/01/25 11:02:44;;;;;;;33.50;14.33;;;3.50;99.90;;;;;;4418382;28;658349;-72
2023/01/25 11:05:33;;;;;;;35.37;16.77;;;3.50;99.90;;;;;;4411910;28;658507;-72
2023/01/25 11:08:23;;;;;;;28.53;12.63;;;3.50;99.90;;;;;;4413490;28;658037;-72
2023/01/25 11:11:32;;;;;;;12.57;6.93;;;3.50;99.90;;;;;;4410543;28;657951;-72
2023/01/25 11:14:19;;;;;;;10.90;5.30;;;3.50;99.90;;;;;;4417175;28;656317;-72
2023/01/25 11:17:17;;;;;;;32.23;17.80;;;3.40;99.90;;;;;;4420600;28;657419;-72
2023/01/25 11:20:18;;;;;;;11.17;5.47;;;3.30;99.90;;;;;;4417781;28;658550;-72
2023/01/25 11:23:19;;;;;;;17.97;9.03;;;3.20;99.90;;;;;;4435283;28;656669;-72
2023/01/25 11:26:15;;;;;;;11.90;7.80;;;3.20;99.90;;;;;;4394417;28;657932;-72
2023/01/25 11:29:12;;;;;;;12.77;8.00;;;3.20;99.90;;;;;;4420525;28;656471;-72
2023/01/25 11:32:02;;;;;;;13.07;5.90;;;3.10;99.90;;;;;;4437341;28;656336;-72
2023/01/25 11:34:50;;;;;;;12.30;5.47;;;3.10;99.90;;;;;;4442037;28;656676;-72
2023/01/25 11:37:44;;;;;;;16.00;9.70;;;3.10;99.90;;;;;;4419085;28;656489;-72
2023/01/25 11:40:38;;;;;;;15.30;6.57;;;3.10;99.90;;;;;;4414997;28;656415;-72
2023/01/25 11:43:46;;;;;;;15.63;9.37;;;3.10;99.90;;;;;;4397309;28;657280;-72
2023/01/25 11:46:41;;;;;;;12.20;6.20;;;3.00;99.90;;;;;;4410368;28;656613;-72
2023/01/25 11:49:34;;;;;;;9.20;4.80;;;2.90;99.90;;;;;;4410535;28;656834;-72
2023/01/25 11:52:26;;;;;;;9.00;4.83;;;2.80;99.90;;;;;;4416155;28;655685;-72
2023/01/25 11:55:21;;;;;;;10.60;4.80;;;2.80;99.90;;;;;;4415794;28;656388;-72
2023/01/25 11:58:17;;;;;;;10.57;5.17;;;2.80;99.90;;;;;;4412459;28;657436;-71
2023/01/25 12:01:10;;;;;;;18.03;7.80;;;2.90;99.90;;;;;;4413909;28;659576;-72
2023/01/25 12:04:13;;;;;;;26.50;12.97;;;2.80;99.90;;;;;;4398124;28;656945;-72
2023/01/25 12:07:02;;;;;;;10.27;5.27;;;2.80;99.90;;;;;;4416689;28;658083;-72
2023/01/25 12:09:56;;;;;;;9.27;4.23;;;2.70;99.90;;;;;;4434863;28;656873;-72
2023/01/25 12:12:46;;;;;;;14.63;7.60;;;2.80;99.90;;;;;;4411550;28;655800;-72
2023/01/25 12:15:41;;;;;;;8.60;4.70;;;2.70;99.90;;;;;;4409715;28;658147;-73
2023/01/25 12:18:49;;;;;;;7.15;3.78;;;2.80;99.90;;;;;;4409348;28;656307;-72
2023/01/25 12:21:55;;;;;;;11.17;5.97;;;2.80;99.90;;;;;;4386649;28;656026;-73
2023/01/25 12:24:46;;;;;;;22.93;7.87;;;2.90;99.90;;;;;;4381331;28;657581;-73
2023/01/25 12:27:41;;;;;;;19.90;9.07;;;2.90;99.90;;;;;;4407288;28;657591;-72
2023/01/25 12:30:36;;;;;;;27.83;11.37;;;3.00;99.90;;;;;;4408904;28;656880;-72
2023/01/25 12:33:27;;;;;;;19.47;8.67;;;3.10;99.90;;;;;;4404453;28;657792;-72
2023/01/25 12:36:19;;;;;;;22.27;7.13;;;3.00;99.90;;;;;;4408500;28;656531;-72
2023/01/25 12:39:08;;;;;;;29.23;11.37;;;3.00;99.90;;;;;;4383802;28;657198;-72
2023/01/25 12:41:58;;;;;;;17.63;6.73;;;3.00;99.90;;;;;;4410386;28;657734;-72
2023/01/25 12:44:47;;;;;;;12.20;5.50;;;3.00;99.90;;;;;;4412834;28;656616;-72
2023/01/25 12:47:37;;;;;;;37.92;12.55;;;3.00;99.90;;;;;;4428387;28;656885;-72
2023/01/25 12:50:27;;;;;;;26.23;8.40;;;3.00;99.90;;;;;;4424072;28;657662;-72
2023/01/25 12:53:19;;;;;;;23.42;9.07;;;2.90;99.90;;;;;;4434827;28;655553;-72
2023/01/25 12:56:07;;;;;;;53.00;16.80;;;2.90;99.90;;;;;;4419976;28;656895;-72
2023/01/25 12:58:55;;;;;;;21.97;8.90;;;3.00;99.90;;;;;;4432625;28;657396;-72
2023/01/25 13:01:46;;;;;;;22.63;7.67;;;3.10;99.90;;;;;;4412141;28;657312;-72
2023/01/25 13:04:45;;;;;;;25.23;9.65;;;3.10;99.90;;;;;;4413314;28;657125;-72
2023/01/25 13:07:36;;;;;;;18.10;7.47;;;3.20;99.90;;;;;;4390100;28;657217;-72
2023/01/25 13:10:26;;;;;;;39.20;15.27;;;3.10;99.90;;;;;;4407694;28;656859;-72
2023/01/25 13:13:24;;;;;;;19.27;8.37;;;3.10;99.90;;;;;;4409786;28;658270;-72
2023/01/25 13:16:35;;;;;;;12.23;6.07;;;3.20;99.90;;;;;;4411242;28;656804;-72
2023/01/25 13:19:22;;;;;;;10.87;5.60;;;3.10;99.90;;;;;;4386727;28;656778;-72
2023/01/25 13:22:10;;;;;;;17.70;8.40;;;3.10;99.90;;;;;;4438560;28;657061;-72
2023/01/25 13:25:09;;;;;;;44.20;16.10;;;3.00;99.90;;;;;;4413113;28;657336;-72
2023/01/25 13:28:41;;;;;;;23.93;8.70;;;3.00;99.90;;;;;;4413729;28;658224;-72
2023/01/25 13:31:44;;;;;;;16.67;7.10;;;2.90;99.90;;;;;;4413471;28;656770;-72
2023/01/25 13:34:56;;;;;;;21.73;8.20;;;2.90;99.90;;;;;;4409453;28;656548;-72
2023/01/25 13:37:44;;;;;;;11.57;5.87;;;2.80;99.90;;;;;;4411676;28;656697;-72
2023/01/25 13:40:35;;;;;;;20.47;8.80;;;2.70;99.90;;;;;;4417196;28;656804;-72
2023/01/25 13:43:22;;;;;;;69.30;22.23;;;2.60;99.90;;;;;;4413227;28;656379;-72
2023/01/25 13:46:13;;;;;;;84.67;26.47;;;2.60;99.90;;;;;;4435457;28;658508;-72
2023/01/25 13:49:03;;;;;;;87.00;29.90;;;2.60;99.90;;;;;;4394858;28;658128;-72
2023/01/25 13:51:50;;;;;;;45.08;18.42;;;2.50;99.90;;;;;;4406823;28;657426;-72
2023/01/25 13:54:43;;;;;;;33.67;14.97;;;2.50;99.90;;;;;;4439828;28;657974;-72
2023/01/25 13:57:31;;;;;;;28.70;12.47;;;2.50;99.90;;;;;;4426129;28;657421;-72
2023/01/25 14:00:19;;;;;;;17.50;8.90;;;2.40;99.90;;;;;;4439376;28;658650;-72
2023/01/25 14:03:08;;;;;;;64.67;18.13;;;2.40;99.90;;;;;;4418571;28;656457;-72
2023/01/25 14:05:57;;;;;;;90.73;22.90;;;2.40;99.90;;;;;;4408852;28;657306;-72
2023/01/25 14:08:44;;;;;;;94.00;45.05;;;2.30;99.90;;;;;;4432004;28;659364;-72
2023/01/25 14:11:33;;;;;;;34.40;17.63;;;2.20;99.90;;;;;;4412807;28;657871;-72
2023/01/25 14:14:24;;;;;;;20.40;10.47;;;2.10;99.90;;;;;;4412781;28;657643;-72
2023/01/25 14:17:15;;;;;;;26.57;12.40;;;2.10;99.90;;;;;;4414842;28;657619;-72
2023/01/25 14:20:16;;;;;;;23.10;10.63;;;2.10;99.90;;;;;;4415147;28;658054;-72
2023/01/25 14:23:04;;;;;;;29.83;14.83;;;2.10;99.90;;;;;;4410916;28;658178;-72
2023/01/25 14:25:51;;;;;;;26.13;12.20;;;2.00;99.90;;;;;;4404094;28;661200;-71
2023/01/25 14:28:38;;;;;;;25.77;11.90;;;1.90;99.90;;;;;;4436164;28;657871;-71
2023/01/25 14:31:27;;;;;;;22.87;11.43;;;1.90;99.90;;;;;;4413616;28;657780;-72